sensor_id;sensor_type;location;lat;lon;timestamp;temperature;humidity
3310;DHT22;1667;53.238;10.394;2022-10-31T00:04:44;15.50;99.90
3310;DHT22;1667;53.238;10.394;2022-10-31T00:09:42;15.40;99.90
3310;DHT22;1667;53.238;10.394;2022-10-31T00:14:41;15.40;99.90
3310;DHT22;1667;53.238;10.394;2022-10-31T00:19:39;15.40;99.90
3310;DHT22;1667;53.238;10.394;2022-10-31T00:24:38;15.40;99.90
3310;DHT22;1667;53.238;10.394;2022-10-31T00:29:36;15.40;99.90
3310;DHT22;1667;53.238;10.394;2022-10-31T00:34:35;15.40;99.90
3310;DHT22;1667;53.238;10.394;2022-10-31T00:39:34;15.40;99.90
3310;DHT22;1667;53.238;10.394;2022-10-31T00:44:32;15.40;99.90
3310;DHT22;1667;53.238;10.394;2022-10-31T00:49:30;15.40;99.90
3310;DHT22;1667;53.238;10.394;2022-10-31T00:54:30;15.40;99.90
3310;DHT22;1667;53.238;10.394;2022-10-31T00:59:28;15.30;99.90
3310;DHT22;1667;53.238;10.394;2022-10-31T01:04:26;15.30;99.90
3310;DHT22;1667;53.238;10.394;2022-10-31T01:09:26;15.30;99.90
3310;DHT22;1667;53.238;10.394;2022-10-31T01:14:26;15.20;99.90
3310;DHT22;1667;53.238;10.394;2022-10-31T01:19:26;15.20;99.90
3310;DHT22;1667;53.238;10.394;2022-10-31T01:24:26;15.20;99.90
3310;DHT22;1667;53.238;10.394;2022-10-31T01:29:26;15.20;99.90
3310;DHT22;1667;53.238;10.394;2022-10-31T01:34:24;15.10;99.90
3310;DHT22;1667;53.238;10.394;2022-10-31T01:39:22;15.10;99.90
3310;DHT22;1667;53.238;10.394;2022-10-31T01:44:51;15.10;99.90
3310;DHT22;1667;53.238;10.394;2022-10-31T01:49:53;15.10;99.90
3310;DHT22;1667;53.238;10.394;2022-10-31T01:54:57;15.10;99.90
3310;DHT22;1667;53.238;10.394;2022-10-31T02:00:00;15.00;99.90
3310;DHT22;1667;53.238;10.394;2022-10-31T02:05:12;15.00;99.90
3310;DHT22;1667;53.238;10.394;2022-10-31T02:10:12;15.00;99.90
3310;DHT22;1667;53.238;10.394;2022-10-31T02:15:12;15.00;99.90
3310;DHT22;1667;53.238;10.394;2022-10-31T02:20:15;15.00;99.90
3310;DHT22;1667;53.238;10.394;2022-10-31T02:25:28;15.00;99.90
3310;DHT22;1667;53.238;10.394;2022-10-31T02:35:53;15.00;99.90
3310;DHT22;1667;53.238;10.394;2022-10-31T02:41:01;15.00;99.90
3310;DHT22;1667;53.238;10.394;2022-10-31T02:46:25;15.00;99.90
3310;DHT22;1667;53.238;10.394;2022-10-31T02:51:27;15.00;99.90
3310;DHT22;1667;53.238;10.394;2022-10-31T02:56:25;15.00;99.90
3310;DHT22;1667;53.238;10.394;2022-10-31T03:01:48;15.00;99.90
3310;DHT22;1667;53.238;10.394;2022-10-31T03:06:57;15.00;99.90
3310;DHT22;1667;53.238;10.394;2022-10-31T03:12:06;15.00;99.90
3310;DHT22;1667;53.238;10.394;2022-10-31T03:17:07;15.00;99.90
3310;DHT22;1667;53.238;10.394;2022-10-31T03:22:13;15.00;99.90
3310;DHT22;1667;53.238;10.394;2022-10-31T03:27:16;15.00;99.90
3310;DHT22;1667;53.238;10.394;2022-10-31T03:32:19;15.00;99.90
3310;DHT22;1667;53.238;10.394;2022-10-31T03:37:24;15.00;99.90
3310;DHT22;1667;53.238;10.394;2022-10-31T03:42:24;15.10;99.90
3310;DHT22;1667;53.238;10.394;2022-10-31T03:47:25;15.10;99.90
3310;DHT22;1667;53.238;10.394;2022-10-31T03:52:26;15.10;99.90
3310;DHT22;1667;53.238;10.394;2022-10-31T03:57:31;15.10;99.90
3310;DHT22;1667;53.238;10.394;2022-10-31T04:02:36;15.10;99.90
3310;DHT22;1667;53.238;10.394;2022-10-31T04:07:41;15.10;99.90
3310;DHT22;1667;53.238;10.394;2022-10-31T04:12:40;15.10;99.90
3310;DHT22;1667;53.238;10.394;2022-10-31T04:17:50;15.10;99.90
3310;DHT22;1667;53.238;10.394;2022-10-31T04:22:51;15.20;99.90
3310;DHT22;1667;53.238;10.394;2022-10-31T04:27:49;15.20;99.90
3310;DHT22;1667;53.238;10.394;2022-10-31T04:32:47;15.20;99.90
3310;DHT22;1667;53.238;10.394;2022-10-31T04:37:46;15.20;99.90
3310;DHT22;1667;53.238;10.394;2022-10-31T04:42:46;15.20;99.90
3310;DHT22;1667;53.238;10.394;2022-10-31T04:47:44;15.20;99.90
3310;DHT22;1667;53.238;10.394;2022-10-31T04:52:43;15.20;99.90
3310;DHT22;1667;53.238;10.394;2022-10-31T04:57:48;15.20;99.90
3310;DHT22;1667;53.238;10.394;2022-10-31T05:02:49;15.20;99.90
3310;DHT22;1667;53.238;10.394;2022-10-31T05:07:49;15.20;99.90
3310;DHT22;1667;53.238;10.394;2022-10-31T05:12:52;15.20;99.90
3310;DHT22;1667;53.238;10.394;2022-10-31T05:18:11;15.20;99.90
3310;DHT22;1667;53.238;10.394;2022-10-31T05:23:32;15.20;99.90
3310;DHT22;1667;53.238;10.394;2022-10-31T05:28:32;15.20;99.90
3310;DHT22;1667;53.238;10.394;2022-10-31T05:33:32;15.20;99.90
3310;DHT22;1667;53.238;10.394;2022-10-31T05:45:39;15.30;99.90
3310;DHT22;1667;53.238;10.394;2022-10-31T05:50:53;15.30;99.90
3310;DHT22;1667;53.238;10.394;2022-10-31T05:55:52;15.30;99.90
3310;DHT22;1667;53.238;10.394;2022-10-31T06:00:53;15.30;99.90
3310;DHT22;1667;53.238;10.394;2022-10-31T06:05:52;15.40;99.90
3310;DHT22;1667;53.238;10.394;2022-10-31T06:10:54;15.40;99.90
3310;DHT22;1667;53.238;10.394;2022-10-31T06:16:14;15.50;99.90
3310;DHT22;1667;53.238;10.394;2022-10-31T06:21:14;15.50;99.90
3310;DHT22;1667;53.238;10.394;2022-10-31T06:26:16;15.50;99.90
3310;DHT22;1667;53.238;10.394;2022-10-31T06:31:15;15.50;99.90
3310;DHT22;1667;53.238;10.394;2022-10-31T06:36:14;15.50;99.90
3310;DHT22;1667;53.238;10.394;2022-10-31T06:41:12;15.60;99.90
3310;DHT22;1667;53.238;10.394;2022-10-31T06:46:14;15.60;99.90
3310;DHT22;1667;53.238;10.394;2022-10-31T06:51:26;15.60;99.90
3310;DHT22;1667;53.238;10.394;2022-10-31T06:56:24;15.60;99.90
3310;DHT22;1667;53.238;10.394;2022-10-31T07:01:26;15.60;99.90
3310;DHT22;1667;53.238;10.394;2022-10-31T07:06:25;15.70;99.90
3310;DHT22;1667;53.238;10.394;2022-10-31T07:11:23;15.70;99.90
3310;DHT22;1667;53.238;10.394;2022-10-31T07:16:26;15.70;99.90
3310;DHT22;1667;53.238;10.394;2022-10-31T07:21:24;15.70;99.90
3310;DHT22;1667;53.238;10.394;2022-10-31T07:26:23;15.70;99.90
3310;DHT22;1667;53.238;10.394;2022-10-31T07:31:21;15.70;99.90
3310;DHT22;1667;53.238;10.394;2022-10-31T07:36:42;15.80;99.90
3310;DHT22;1667;53.238;10.394;2022-10-31T07:41:41;15.80;99.90
3310;DHT22;1667;53.238;10.394;2022-10-31T07:46:40;15.90;99.90
3310;DHT22;1667;53.238;10.394;2022-10-31T07:51:58;15.90;99.90
3310;DHT22;1667;53.238;10.394;2022-10-31T07:57:14;16.00;99.90
3310;DHT22;1667;53.238;10.394;2022-10-31T08:02:20;16.00;99.90
3310;DHT22;1667;53.238;10.394;2022-10-31T08:07:20;16.00;99.90
3310;DHT22;1667;53.238;10.394;2022-10-31T08:12:25;16.10;99.90
3310;DHT22;1667;53.238;10.394;2022-10-31T08:17:23;16.10;99.90
3310;DHT22;1667;53.238;10.394;2022-10-31T08:22:28;16.20;99.90
3310;DHT22;1667;53.238;10.394;2022-10-31T08:27:26;16.20;99.90
3310;DHT22;1667;53.238;10.394;2022-10-31T08:32:28;16.30;99.90
3310;DHT22;1667;53.238;10.394;2022-10-31T08:37:42;16.40;99.90
3310;DHT22;1667;53.238;10.394;2022-10-31T08:42:40;16.40;99.90
3310;DHT22;1667;53.238;10.394;2022-10-31T08:47:39;16.50;99.90
3310;DHT22;1667;53.238;10.394;2022-10-31T08:52:37;16.50;99.90
3310;DHT22;1667;53.238;10.394;2022-10-31T08:57:58;16.60;99.90
3310;DHT22;1667;53.238;10.394;2022-10-31T09:03:06;16.70;99.90
3310;DHT22;1667;53.238;10.394;2022-10-31T09:08:06;16.80;99.90
3310;DHT22;1667;53.238;10.394;2022-10-31T09:13:16;16.90;99.90
3310;DHT22;1667;53.238;10.394;2022-10-31T09:18:34;17.00;99.90
3310;DHT22;1667;53.238;10.394;2022-10-31T09:23:32;17.00;99.90
3310;DHT22;1667;53.238;10.394;2022-10-31T09:28:33;17.10;99.90
3310;DHT22;1667;53.238;10.394;2022-10-31T09:33:46;17.20;99.90
3310;DHT22;1667;53.238;10.394;2022-10-31T09:39:03;17.20;99.90
3310;DHT22;1667;53.238;10.394;2022-10-31T09:50:47;17.30;99.90
3310;DHT22;1667;53.238;10.394;2022-10-31T10:03:06;17.40;99.90
3310;DHT22;1667;53.238;10.394;2022-10-31T10:08:11;17.40;99.90
3310;DHT22;1667;53.238;10.394;2022-10-31T10:13:42;17.50;99.90
3310;DHT22;1667;53.238;10.394;2022-10-31T10:18:52;17.60;99.90
3310;DHT22;1667;53.238;10.394;2022-10-31T10:24:03;17.60;99.90
3310;DHT22;1667;53.238;10.394;2022-10-31T10:29:18;17.70;99.90
3310;DHT22;1667;53.238;10.394;2022-10-31T10:34:22;17.80;99.90
3310;DHT22;1667;53.238;10.394;2022-10-31T10:39:25;17.90;99.90
3310;DHT22;1667;53.238;10.394;2022-10-31T10:44:24;17.90;99.90
3310;DHT22;1667;53.238;10.394;2022-10-31T10:49:43;18.00;99.90
3310;DHT22;1667;53.238;10.394;2022-10-31T10:54:57;18.00;99.90
3310;DHT22;1667;53.238;10.394;2022-10-31T11:00:00;18.20;99.90
3310;DHT22;1667;53.238;10.394;2022-10-31T11:05:00;18.20;99.90
3310;DHT22;1667;53.238;10.394;2022-10-31T11:10:05;18.30;99.90
3310;DHT22;1667;53.238;10.394;2022-10-31T11:15:19;18.40;99.90
3310;DHT22;1667;53.238;10.394;2022-10-31T11:20:27;18.50;99.90
3310;DHT22;1667;53.238;10.394;2022-10-31T11:25:29;18.50;99.90
3310;DHT22;1667;53.238;10.394;2022-10-31T11:30:27;18.50;99.90
3310;DHT22;1667;53.238;10.394;2022-10-31T11:35:26;18.50;99.90
3310;DHT22;1667;53.238;10.394;2022-10-31T11:40:26;18.60;99.90
3310;DHT22;1667;53.238;10.394;2022-10-31T11:45:31;18.60;99.90
3310;DHT22;1667;53.238;10.394;2022-10-31T11:50:34;18.60;99.90
3310;DHT22;1667;53.238;10.394;2022-10-31T11:55:37;18.60;99.90
3310;DHT22;1667;53.238;10.394;2022-10-31T12:00:38;18.70;99.90
3310;DHT22;1667;53.238;10.394;2022-10-31T12:05:40;18.80;99.90
3310;DHT22;1667;53.238;10.394;2022-10-31T12:10:47;18.80;99.90
3310;DHT22;1667;53.238;10.394;2022-10-31T12:15:55;18.90;99.90
3310;DHT22;1667;53.238;10.394;2022-10-31T12:21:05;19.00;99.90
3310;DHT22;1667;53.238;10.394;2022-10-31T12:26:14;19.00;99.90
3310;DHT22;1667;53.238;10.394;2022-10-31T12:31:46;19.00;99.90
3310;DHT22;1667;53.238;10.394;2022-10-31T12:36:51;19.10;99.90
3310;DHT22;1667;53.238;10.394;2022-10-31T12:41:54;19.20;99.90
3310;DHT22;1667;53.238;10.394;2022-10-31T12:59:28;19.10;99.90
3310;DHT22;1667;53.238;10.394;2022-10-31T13:04:37;19.00;99.90
3310;DHT22;1667;53.238;10.394;2022-10-31T13:09:41;19.00;99.90
3310;DHT22;1667;53.238;10.394;2022-10-31T13:14:46;18.90;99.90
3310;DHT22;1667;53.238;10.394;2022-10-31T13:19:45;18.80;99.90
3310;DHT22;1667;53.238;10.394;2022-10-31T13:24:53;18.70;99.90
3310;DHT22;1667;53.238;10.394;2022-10-31T13:30:01;18.70;99.90
3310;DHT22;1667;53.238;10.394;2022-10-31T13:34:59;18.60;99.90
3310;DHT22;1667;53.238;10.394;2022-10-31T13:40:14;18.60;99.90
3310;DHT22;1667;53.238;10.394;2022-10-31T13:45:19;18.50;99.90
3310;DHT22;1667;53.238;10.394;2022-10-31T13:50:26;18.50;99.90
3310;DHT22;1667;53.238;10.394;2022-10-31T13:55:36;18.40;99.90
3310;DHT22;1667;53.238;10.394;2022-10-31T14:00:36;18.30;99.90
3310;DHT22;1667;53.238;10.394;2022-10-31T14:05:35;18.20;99.90
3310;DHT22;1667;53.238;10.394;2022-10-31T14:10:36;18.20;99.90
3310;DHT22;1667;53.238;10.394;2022-10-31T14:15:38;18.20;99.90
3310;DHT22;1667;53.238;10.394;2022-10-31T14:20:39;18.20;99.90
3310;DHT22;1667;53.238;10.394;2022-10-31T14:25:38;18.10;99.90
3310;DHT22;1667;53.238;10.394;2022-10-31T14:30:37;18.10;99.90
3310;DHT22;1667;53.238;10.394;2022-10-31T14:35:46;18.10;99.90
3310;DHT22;1667;53.238;10.394;2022-10-31T14:41:03;18.00;99.90
3310;DHT22;1667;53.238;10.394;2022-10-31T14:46:14;18.00;99.90
3310;DHT22;1667;53.238;10.394;2022-10-31T14:51:17;18.00;99.90
3310;DHT22;1667;53.238;10.394;2022-10-31T14:56:21;17.90;99.90
3310;DHT22;1667;53.238;10.394;2022-10-31T15:01:24;17.80;99.90
3310;DHT22;1667;53.238;10.394;2022-10-31T15:06:24;17.70;99.90
3310;DHT22;1667;53.238;10.394;2022-10-31T15:11:24;17.60;99.90
3310;DHT22;1667;53.238;10.394;2022-10-31T15:16:26;17.60;99.90
3310;DHT22;1667;53.238;10.394;2022-10-31T15:21:29;17.50;99.90
3310;DHT22;1667;53.238;10.394;2022-10-31T15:26:31;17.40;99.90
3310;DHT22;1667;53.238;10.394;2022-10-31T15:31:32;17.40;99.90
3310;DHT22;1667;53.238;10.394;2022-10-31T15:36:30;17.40;99.90
3310;DHT22;1667;53.238;10.394;2022-10-31T15:41:35;17.30;99.90
3310;DHT22;1667;53.238;10.394;2022-10-31T15:46:36;17.30;99.90
3310;DHT22;1667;53.238;10.394;2022-10-31T15:51:34;17.30;99.90
3310;DHT22;1667;53.238;10.394;2022-10-31T15:56:34;17.20;99.90
3310;DHT22;1667;53.238;10.394;2022-10-31T16:01:33;17.10;99.90
3310;DHT22;1667;53.238;10.394;2022-10-31T16:06:34;17.10;99.90
3310;DHT22;1667;53.238;10.394;2022-10-31T16:11:34;17.00;99.90
3310;DHT22;1667;53.238;10.394;2022-10-31T16:16:49;16.90;99.90
3310;DHT22;1667;53.238;10.394;2022-10-31T16:21:53;16.80;99.90
3310;DHT22;1667;53.238;10.394;2022-10-31T16:26:53;16.80;99.90
3310;DHT22;1667;53.238;10.394;2022-10-31T16:31:51;16.70;99.90
3310;DHT22;1667;53.238;10.394;2022-10-31T16:36:51;16.60;99.90
3310;DHT22;1667;53.238;10.394;2022-10-31T16:41:52;16.50;99.90
3310;DHT22;1667;53.238;10.394;2022-10-31T16:52:56;16.50;99.90
3310;DHT22;1667;53.238;10.394;2022-10-31T16:58:20;16.40;99.90
3310;DHT22;1667;53.238;10.394;2022-10-31T17:03:19;16.40;99.90
3310;DHT22;1667;53.238;10.394;2022-10-31T17:08:18;16.30;99.90
3310;DHT22;1667;53.238;10.394;2022-10-31T17:13:19;16.20;99.90
3310;DHT22;1667;53.238;10.394;2022-10-31T17:18:18;16.20;99.90
3310;DHT22;1667;53.238;10.394;2022-10-31T17:29:53;16.20;99.90
3310;DHT22;1667;53.238;10.394;2022-10-31T17:34:51;16.20;99.90
3310;DHT22;1667;53.238;10.394;2022-10-31T17:39:50;16.10;99.90
3310;DHT22;1667;53.238;10.394;2022-10-31T17:44:48;16.20;99.90
3310;DHT22;1667;53.238;10.394;2022-10-31T17:49:47;16.10;99.90
3310;DHT22;1667;53.238;10.394;2022-10-31T17:54:45;16.10;99.90
3310;DHT22;1667;53.238;10.394;2022-10-31T17:59:43;16.10;99.90
3310;DHT22;1667;53.238;10.394;2022-10-31T18:04:42;16.20;99.90
3310;DHT22;1667;53.238;10.394;2022-10-31T18:09:41;16.20;99.90
3310;DHT22;1667;53.238;10.394;2022-10-31T18:14:39;16.10;99.90
3310;DHT22;1667;53.238;10.394;2022-10-31T18:19:44;16.10;99.90
3310;DHT22;1667;53.238;10.394;2022-10-31T18:24:44;16.00;99.90
3310;DHT22;1667;53.238;10.394;2022-10-31T18:29:42;15.80;99.90
3310;DHT22;1667;53.238;10.394;2022-10-31T18:34:40;15.80;99.90
3310;DHT22;1667;53.238;10.394;2022-10-31T18:39:38;15.80;99.90
3310;DHT22;1667;53.238;10.394;2022-10-31T18:44:37;15.80;99.90
3310;DHT22;1667;53.238;10.394;2022-10-31T18:49:36;15.90;99.90
3310;DHT22;1667;53.238;10.394;2022-10-31T18:54:34;16.00;99.90
3310;DHT22;1667;53.238;10.394;2022-10-31T18:59:32;16.10;99.90
3310;DHT22;1667;53.238;10.394;2022-10-31T19:04:32;16.20;99.90
3310;DHT22;1667;53.238;10.394;2022-10-31T19:09:32;16.20;99.90
3310;DHT22;1667;53.238;10.394;2022-10-31T19:14:30;16.10;99.90
3310;DHT22;1667;53.238;10.394;2022-10-31T19:19:28;16.00;99.90
3310;DHT22;1667;53.238;10.394;2022-10-31T19:24:28;16.00;99.90
3310;DHT22;1667;53.238;10.394;2022-10-31T19:29:26;15.90;99.90
3310;DHT22;1667;53.238;10.394;2022-10-31T19:34:24;15.70;99.90
3310;DHT22;1667;53.238;10.394;2022-10-31T19:39:22;15.70;99.90
3310;DHT22;1667;53.238;10.394;2022-10-31T19:44:21;15.70;99.90
3310;DHT22;1667;53.238;10.394;2022-10-31T19:49:20;15.80;99.90
3310;DHT22;1667;53.238;10.394;2022-10-31T19:54:18;15.80;99.90
3310;DHT22;1667;53.238;10.394;2022-10-31T19:59:16;15.80;99.90
3310;DHT22;1667;53.238;10.394;2022-10-31T20:04:15;15.90;99.90
3310;DHT22;1667;53.238;10.394;2022-10-31T20:09:14;15.80;99.90
3310;DHT22;1667;53.238;10.394;2022-10-31T20:14:14;15.80;99.90
3310;DHT22;1667;53.238;10.394;2022-10-31T20:19:12;15.90;99.90
3310;DHT22;1667;53.238;10.394;2022-10-31T20:24:12;16.00;99.90
3310;DHT22;1667;53.238;10.394;2022-10-31T20:29:12;16.10;99.90
3310;DHT22;1667;53.238;10.394;2022-10-31T20:34:11;16.20;99.90
3310;DHT22;1667;53.238;10.394;2022-10-31T20:39:10;16.20;99.90
3310;DHT22;1667;53.238;10.394;2022-10-31T20:44:09;16.20;99.90
3310;DHT22;1667;53.238;10.394;2022-10-31T20:49:07;16.10;99.90
3310;DHT22;1667;53.238;10.394;2022-10-31T20:54:05;16.10;99.90
3310;DHT22;1667;53.238;10.394;2022-10-31T20:59:04;16.10;99.90
3310;DHT22;1667;53.238;10.394;2022-10-31T21:10:31;16.10;99.90
3310;DHT22;1667;53.238;10.394;2022-10-31T21:15:29;16.00;99.90
3310;DHT22;1667;53.238;10.394;2022-10-31T21:20:27;16.00;99.90
3310;DHT22;1667;53.238;10.394;2022-10-31T21:25:25;16.00;99.90
3310;DHT22;1667;53.238;10.394;2022-10-31T21:30:25;15.90;99.90
3310;DHT22;1667;53.238;10.394;2022-10-31T21:35:23;15.90;99.90
3310;DHT22;1667;53.238;10.394;2022-10-31T21:40:21;15.80;99.90
3310;DHT22;1667;53.238;10.394;2022-10-31T21:45:19;15.80;99.90
3310;DHT22;1667;53.238;10.394;2022-10-31T21:50:19;15.80;99.90
3310;DHT22;1667;53.238;10.394;2022-10-31T21:55:18;15.80;99.90
3310;DHT22;1667;53.238;10.394;2022-10-31T22:00:16;15.80;99.90
3310;DHT22;1667;53.238;10.394;2022-10-31T22:05:35;15.80;99.90
3310;DHT22;1667;53.238;10.394;2022-10-31T22:10:33;15.70;99.90
3310;DHT22;1667;53.238;10.394;2022-10-31T22:15:31;15.70;99.90
3310;DHT22;1667;53.238;10.394;2022-10-31T22:20:29;15.70;99.90
3310;DHT22;1667;53.238;10.394;2022-10-31T22:25:29;15.60;99.90
3310;DHT22;1667;53.238;10.394;2022-10-31T22:30:27;15.70;99.90
3310;DHT22;1667;53.238;10.394;2022-10-31T22:35:25;15.60;99.90
3310;DHT22;1667;53.238;10.394;2022-10-31T22:40:23;15.50;99.90
3310;DHT22;1667;53.238;10.394;2022-10-31T22:45:23;15.60;99.90
3310;DHT22;1667;53.238;10.394;2022-10-31T22:50:21;15.70;99.90
3310;DHT22;1667;53.238;10.394;2022-10-31T22:55:19;15.70;99.90
3310;DHT22;1667;53.238;10.394;2022-10-31T23:00:18;15.60;99.90
3310;DHT22;1667;53.238;10.394;2022-10-31T23:05:17;15.60;99.90
3310;DHT22;1667;53.238;10.394;2022-10-31T23:10:15;15.70;99.90
3310;DHT22;1667;53.238;10.394;2022-10-31T23:15:14;15.80;99.90
3310;DHT22;1667;53.238;10.394;2022-10-31T23:20:12;15.80;99.90
3310;DHT22;1667;53.238;10.394;2022-10-31T23:25:11;15.80;99.90
3310;DHT22;1667;53.238;10.394;2022-10-31T23:30:10;15.90;99.90
3310;DHT22;1667;53.238;10.394;2022-10-31T23:35:09;15.90;99.90
3310;DHT22;1667;53.238;10.394;2022-10-31T23:40:07;15.80;99.90
3310;DHT22;1667;53.238;10.394;2022-10-31T23:45:08;15.80;99.90
3310;DHT22;1667;53.238;10.394;2022-10-31T23:50:07;15.80;99.90
3310;DHT22;1667;53.238;10.394;2022-10-31T23:55:05;15.80;99.90
